Terminal Aerodrome Forecast
Issued by NWS Wilmington, NC

Home | Current Version | Previous Version | Text Only | Print | Product List | Glossary On
Versions: 1 2 3 4 5 6 7 8 9 10 11 12 13 14 15 16 17 18 19 20 21 22 23 24 25 26 27
000
FTUS42 KILM 211720
TAFFLO
TAF
KFLO 211720Z 2118/2218 19008KT P6SM SCT030 BKN070
     FM220200 18005KT P6SM SCT015 BKN050
     FM220700 20003KT 1SM BR OVC007
      TEMPO 2208/2212 1/4SM FG VV002
     FM221400 21006KT P6SM SCT020=

USA.gov is the U.S. government's official web portal to all federal, state and local government web resources and services.